Rodman, IA

6:19 AM CST on November 23, 2014 (GMT -0600)
Fort Dodge Regional | Change Station
CLOSE
Current Station
Airport
Location: Fort Dodge,
Elevation: 1165 ft
Nearby Weather Stations

Elev 1165 ft 42.55 °N, 94.19 °W | Updated 4 minutes ago

Overcast
Overcast
52 °F
Feels Like 52 °F
N
14
Wind Variable Wind from South
Gusts 21 mph

Today
High -- | Low -- °F
--% Chance of Precip.
Yesterday
High -- | Low -- °F
Precip. -- in
7:20 AM 4:49 PM
New Moon, 1% visible
Pressure 29.49 in
Visibility 10.0 miles
Clouds Overcast 800 ft
Dew Point 48 °F
Humidity 88%
Rainfall 0.00 in
Snow Depth Not available.
UV 0 out of 12
Pollen .10 out of 12
Air Quality Not available.
Flu Activity Not available.
METAR KFOD 231215Z AUTO 17012G18KT 10SM OVC008 11/09 A2949 RMK AO1

More Conditions Fewer Conditions

Pressure 29.49 in
Visibility 10.0 miles
Clouds Overcast 800 ft
Dew Point 48 °F
Humidity 88%
Rainfall 0.00 in
Snow Depth Not available.
UV 0 out of 12
Pollen .10 out of 12
Air Quality Not available.
Flu Activity Not available.
METAR KFOD 231215Z AUTO 17012G18KT 10SM OVC008 11/09 A2949 RMK AO1

More Conditions Fewer Conditions

10-Day Weather Forecast

Almanac

Astronomy

Nov. 23, 2014 Rise Set
Actual Time
Civil Twilight
Nautical Twilight
Astronomical Twilight
Moon
Length of Visible Light
Length of Day
Tomorrow will be .
, % of the Moon is Illuminated

Today's Extremes

State Highs State Lows

Community

WunderPhotos

Upload Photos

1,773,041 photos uploaded!

WunderBlogs® & News

Nearby

Air Quality

  Air Quality AQ Index Pollutant
Not available.

Snow Depth

Station Depth Elevation

Earthquake Activity

City Distance Mag. Time & Date
Minimum magnitude displayed is 2.5.

Coastal Water Temperatures

Place Temperature

Nearby Weather Stations